METAR Data
IDs: Format: Raw Decoded Include TAF

Data at: 1529 UTC 18 Aug 2019

PAAQ 181453Z AUTO 02024G37KT 10SM CLR 12/M02 A3011 RMK AO2 PK WND 03038/1420 SLP196 T01221017 58012 TSNO
PAAQ 181353Z AUTO 03024G36KT 10SM CLR 13/M02 A3012 RMK AO2 PK WND 03040/1342 SLP201 T01281017 TSNO
PAAQ 181253Z AUTO 02026G37KT 10SM CLR 13/M01 A3014 RMK AO2 PK WND 03038/1213 SLP207 T01281011 TSNO
PAAQ 181153Z AUTO 03021G33KT 10SM CLR 13/M01 A3014 RMK AO2 PK WND 02035/1120 SLP208 T01331011 10178 20133 55004 TSNO
PAAQ 181053Z AUTO 03026G36KT 10SM CLR 14/M01 A3014 RMK AO2 PK WND 03038/0959 SLP206 T01441011 TSNO
PAAQ 180953Z AUTO 03028G43KT 10SM CLR 15/M01 A3015 RMK AO2 PK WND 03043/0948 SLP210 T01501011 TSNO
PAAQ 180853Z AUTO 03024G31KT 10SM CLR 16/M01 A3016 RMK AO2 PK WND 03031/0848 SLP213 T01561011 402220089 50007 TSNO
PAAQ 180753Z AUTO 03018G26KT 10SM CLR 16/M02 A3016 RMK AO2 PK WND 04026/0744 SLP214 T01611017 TSNO
PAAQ 180653Z AUTO 04013KT 10SM CLR 17/M02 A3015 RMK AO2 SLP212 T01671017 TSNO
PAAQ 180553Z AUTO 03014G22KT 10SM CLR 18/M02 A3014 RMK AO2 SLP206 T01781017 10222 20178 58001 TSNO
PAAQ 180453Z AUTO 04014G20KT 10SM CLR 19/M02 A3014 RMK AO2 SLP207 T01891022 TSNO
PAAQ 180353Z AUTO 04010KT 10SM CLR 21/M03 A3015 RMK AO2 SLP209 T02061028 TSNO
PAAQ 180253Z AUTO 06013G22KT 10SM CLR 22/M03 A3014 RMK AO2 SLP207 T02171028 56008 TSNO
PAAQ 180153Z 07012G27KT 040V100 10SM CLR 22/M04 A3015 RMK AO2 PK WND 02031/0058 SLP210 BLDU SE-S RIVER BED T02221039
PAAQ 180053Z 05015G25KT 10SM CLR 22/M03 A3016 RMK AO2 PK WND 04035/2358 SLP214 T02221028
PAAQ 172353Z 04024G30KT 10SM CLR 22/M02 A3017 RMK AO2 PK WND 04033/2321 SLP216 T02221022 10222 20178 58005
PAAQ 172253Z 05015G25KT 10SM CLR 22/M01 A3018 RMK AO2 PK WND 03032/2242 SLP219 BLDU SE-S RIVER BED T02171006
PAAQ 172153Z 04016G29KT 10SM CLR 21/00 A3018 RMK AO2 PK WND 03036/2139 SLP221 BLDU SE-S RIVER BED T02110000
PAAQ 172053Z 05018G30KT 10SM CLR 21/00 A3018 RMK AO2 PK WND 03036/2015 SLP220 BLDU E-S RIVER BED T02060000 51007
PAAQ 171953Z 04022G30KT 10SM CLR 19/01 A3018 RMK AO2 PK WND 04034/1941 SLP220 BLDU E-S RIVER BED T01940011
PAAQ 171853Z 03020G33KT 10SM CLR 18/00 A3017 RMK AO2 PK WND 01035/1829 SLP218 BLDU E-S RIVER BED T01830000
PAAQ 171753Z 03023G31KT 10SM CLR 17/M01 A3016 RMK AO2 PK WND 03032/1719 SLP213 BLDU E-S RIVER BED T01721011 10172 20089 51015
PAAQ 171653Z 03019G27KT 10SM CLR 17/M02 A3016 RMK AO2 PK WND 03031/1630 SLP213 BLDU E-S RIVER BED T01671017
PAAQ 171553Z 05016G31KT 10SM CLR 16/M03 A3014 RMK AO2 PK WND 05032/1529 WSHFT 1443 SLP208 BLDU E-S RIVER BED T01611028
PAAQ 171503Z AUTO 03018G28KT 10SM CLR 15/00 A3012 RMK AO2 PK WND 03028/1455 WSHFT 1443 T01500000 TSNO
PAAQ 171453Z AUTO 03021G32KT 10SM CLR 14/01 A3011 RMK AO2 PK WND 03032/1453 SLP198 T01440006 53012 TSNO
PAAQ 171353Z AUTO 33003KT 10SM CLR 11/06 A3009 RMK AO2 SLP190 T01110061 TSNO
PAAQ 171253Z AUTO 27006KT 10SM CLR 13/07 A3008 RMK AO2 SLP186 T01280067 TSNO
PAAQ 171153Z AUTO 12003KT 10SM CLR 12/06 A3008 RMK AO2 SLP186 T01220056 10206 20122 51007 TSNO
PAAQ 171053Z AUTO 00000KT 10SM CLR 16/06 A3007 RMK AO2 SLP182 T01560056 TSNO
PAAQ 170953Z AUTO 24011G17KT 10SM FEW090 17/06 A3007 RMK AO2 SLP183 T01720061 TSNO
PAAQ 170853Z AUTO 25006KT 10SM CLR 18/06 A3006 RMK AO2 SLP179 T01780061 402560122 53005 TSNO
PAAQ 170753Z AUTO 26007KT 10SM CLR 19/07 A3004 RMK AO2 SLP171 T01890067 TSNO
PAAQ 170653Z AUTO 24009KT 10SM BKN110 20/09 A3003 RMK AO2 SLP169 T02000089 TSNO
PAAQ 170553Z AUTO VRB03KT 10SM BKN110 20/11 A3004 RMK AO2 SLP174 T02000111 10256 20200 58010 TSNO
PAAQ 170453Z AUTO 22004KT 10SM SCT070 OVC100 21/12 A3007 RMK AO2 SLP182 T02110117 TSNO
PAAQ 170353Z AUTO 23007KT 10SM BKN100 22/12 A3007 RMK AO2 SLP182 T02220122 TSNO